ウィニペグ の空港の天気 - METARとTAF

ウィニペグ国際空港 ( CYWG / YWG ) - カナダ マニトバ州ウィニペグ
飛行場実況気象(Metar)
観測時間10/20 11:00 CDT (10/20 16:00 UTC)
風向・風速不定 1m/s
視程10km以上
天気現象
全天の8割程度の雲 雲底高度 7620m
気温7℃
湿度76%
気圧1007.7hPa
METARCYWG 201600Z VRB02KT 15SM BKN250 07/03 A2973 RMK CI6 SLP077
過去の天気等 Google飛行場航空写真 Wunderground天気予報

過去48時間のMETAR

飛行場予報(TAF)
発表時間: 10/20 06:39 CDT (10/20 11:39 UTC)
予報対象時間: 20日7時 CDT ~ 21日7時 CDT
風向・風速南 4m/s
視程10km以上
少しの雲 雲底高度 3050m
20日10時 CDT から
風向・風速南南西 4m/s
視程10km以上
なし
20日19時 CDT から
風向・風速南南西 5m/s
視程10km以上
全天の4割程度の雲 雲底高度 7320m
21日1時 CDT から
風向・風速不定 2m/s
視程10km以上
全天の8割程度の雲 雲底高度 5490m
21日5時 CDT から
風向・風速北北東 3m/s
視程10km以上
天気現象周辺でしゅう雨
全天を覆う雲 雲底高度 2440m
TAF CYWG 201139Z 2012/2112 18008KT P6SM FEW100
FM201500 20008KT P6SM SKC
FM210000 21010KT P6SM SCT240
FM210600 VRB03KT P6SM BKN180
FM211000 02006KT P6SM VCSH OVC080 RMK NXT FCST BY 201800Z